Time;durP1;ratioP1;P1;durP2;ratioP2;P2;SDS_P1;SDS_P2;PMS_P1;PMS_P2;Temp;Humidity;BMP_temperature;BMP_pressure;BME280_temperature;BME280_humidity;BME280_pressure;Samples;Min_cycle;Max_cycle;Signal;HPM_P1;HPM_P2
2023/08/23 00:01:02;;;;;;;19.13;11.80;;;19.10;99.90;;;;;;5086793;28;20473;-71
2023/08/23 00:03:29;;;;;;;16.20;12.07;;;19.10;99.90;;;;;;5089934;28;20876;-72
2023/08/23 00:05:57;;;;;;;20.93;11.30;;;19.10;99.90;;;;;;5084525;28;20456;-71
2023/08/23 00:08:25;;;;;;;18.33;11.80;;;19.10;99.90;;;;;;5084990;28;20474;-72
2023/08/23 00:10:55;;;;;;;18.10;13.47;;;19.00;99.90;;;;;;5087977;28;20517;-70
2023/08/23 00:13:24;;;;;;;19.00;12.30;;;19.00;99.90;;;;;;5089844;28;20495;-71
2023/08/23 00:15:51;;;;;;;16.60;11.13;;;19.00;99.90;;;;;;5091417;28;20453;-71
2023/08/23 00:18:21;;;;;;;15.37;11.03;;;19.00;99.90;;;;;;5090318;28;20441;-70
2023/08/23 00:20:48;;;;;;;17.60;10.93;;;19.00;99.90;;;;;;5085012;28;20481;-71
2023/08/23 00:23:23;;;;;;;19.20;13.30;;;18.90;99.90;;;;;;5087482;28;20492;-71
2023/08/23 00:25:50;;;;;;;14.33;10.70;;;18.90;99.90;;;;;;5089744;28;20472;-70
2023/08/23 00:28:20;;;;;;;17.70;11.20;;;18.80;99.90;;;;;;5086643;28;20498;-72
2023/08/23 00:30:50;;;;;;;15.10;11.80;;;18.90;99.90;;;;;;5091798;28;20433;-72
2023/08/23 00:33:25;;;;;;;18.23;11.43;;;18.80;99.90;;;;;;5092049;28;20531;-70
2023/08/23 00:35:51;;;;;;;16.17;9.50;;;18.80;99.90;;;;;;5092662;28;20445;-70
2023/08/23 00:38:28;;;;;;;16.63;12.87;;;18.80;99.90;;;;;;5092052;28;20441;-71
2023/08/23 00:40:55;;;;;;;30.50;11.00;;;18.80;99.90;;;;;;5091676;28;20541;-71
2023/08/23 00:43:25;;;;;;;18.97;11.57;;;18.80;99.90;;;;;;5091666;28;20522;-71
2023/08/23 00:45:53;;;;;;;17.63;10.43;;;18.80;99.90;;;;;;5076672;28;20468;-73
2023/08/23 00:48:22;;;;;;;15.23;9.87;;;18.80;99.90;;;;;;5076541;28;20949;-72
2023/08/23 00:50:49;;;;;;;16.93;12.23;;;18.80;99.90;;;;;;5076980;28;20429;-75
2023/08/23 00:53:16;;;;;;;15.40;11.57;;;18.80;99.90;;;;;;5076097;28;20505;-73
2023/08/23 00:55:45;;;;;;;15.27;11.90;;;18.70;99.90;;;;;;5076425;28;20876;-73
2023/08/23 00:58:12;;;;;;;14.40;11.10;;;18.70;99.90;;;;;;5076452;28;20865;-72
2023/08/23 01:01:01;;;;;;;20.27;14.57;;;18.70;99.90;;;;;;5075378;28;20475;-73
2023/08/23 01:03:28;;;;;;;20.90;13.30;;;18.60;99.90;;;;;;5075502;28;20532;-72
2023/08/23 01:06:09;;;;;;;18.20;14.13;;;18.60;99.90;;;;;;5084082;28;20446;-70
2023/08/23 01:08:56;;;;;;;21.13;15.60;;;18.50;99.90;;;;;;5075549;28;20512;-72
2023/08/23 01:11:28;;;;;;;20.93;14.17;;;18.50;99.90;;;;;;5067778;28;20516;-73
2023/08/23 01:14:02;;;;;;;22.03;14.37;;;18.40;99.90;;;;;;5075281;28;20477;-71
2023/08/23 01:16:32;;;;;;;24.13;14.20;;;18.40;99.90;;;;;;5075223;28;20967;-71
2023/08/23 01:19:01;;;;;;;23.20;16.50;;;18.40;99.90;;;;;;5066922;28;20445;-74
2023/08/23 01:21:33;;;;;;;21.30;15.37;;;18.30;99.90;;;;;;5069966;28;20473;-74
2023/08/23 01:24:08;;;;;;;25.47;16.90;;;18.30;99.90;;;;;;5075502;28;20560;-74
2023/08/23 01:26:36;;;;;;;18.53;13.37;;;18.20;99.90;;;;;;5083343;28;20451;-72
2023/08/23 01:29:04;;;;;;;22.47;15.03;;;18.30;99.90;;;;;;5076886;28;20868;-72
2023/08/23 01:31:35;;;;;;;20.90;16.00;;;18.30;99.90;;;;;;5067887;28;20520;-74
2023/08/23 01:34:12;;;;;;;22.97;17.37;;;18.20;99.90;;;;;;5074477;28;20471;-74
2023/08/23 01:36:42;;;;;;;30.53;19.20;;;18.20;99.90;;;;;;5075375;28;20437;-73
2023/08/23 01:39:13;;;;;;;24.03;17.00;;;18.20;99.90;;;;;;5072825;28;20489;-74
2023/08/23 01:41:41;;;;;;;21.83;16.17;;;18.20;99.90;;;;;;5070121;28;20512;-73
2023/08/23 01:44:09;;;;;;;26.00;18.93;;;18.20;99.90;;;;;;5076136;28;20885;-73
2023/08/23 01:46:36;;;;;;;32.87;21.40;;;18.20;99.90;;;;;;5076391;28;20920;-71
2023/08/23 01:49:03;;;;;;;23.03;17.33;;;18.10;99.90;;;;;;5073952;28;20441;-71
2023/08/23 01:51:30;;;;;;;25.03;18.47;;;18.10;99.90;;;;;;5073308;28;20472;-72
2023/08/23 01:53:57;;;;;;;32.27;22.17;;;18.10;99.90;;;;;;5074375;28;20832;-73
2023/08/23 01:56:26;;;;;;;24.57;20.30;;;18.00;99.90;;;;;;5074688;28;20433;-74
2023/08/23 01:58:53;;;;;;;33.20;23.53;;;18.00;99.90;;;;;;5074039;28;20444;-72
2023/08/23 02:01:21;;;;;;;32.20;22.47;;;18.00;99.90;;;;;;5072326;28;20515;-73
2023/08/23 02:03:48;;;;;;;37.80;23.37;;;17.90;99.90;;;;;;5075009;28;20469;-74
2023/08/23 02:06:17;;;;;;;31.43;22.80;;;17.90;99.90;;;;;;5081685;28;20528;-72
2023/08/23 02:08:44;;;;;;;40.00;28.03;;;17.90;99.90;;;;;;5090070;28;20447;-71
2023/08/23 02:11:15;;;;;;;37.27;25.93;;;17.90;99.90;;;;;;5085495;28;20994;-72
2023/08/23 02:13:43;;;;;;;34.13;23.70;;;17.80;99.90;;;;;;5083430;28;20959;-72
2023/08/23 02:16:11;;;;;;;30.83;24.10;;;17.80;99.90;;;;;;5091057;28;20797;-73
2023/08/23 02:18:38;;;;;;;37.00;25.47;;;17.70;99.90;;;;;;5084995;28;20855;-71
2023/08/23 02:21:05;;;;;;;36.50;24.63;;;17.70;99.90;;;;;;5077988;28;20552;-73
2023/08/23 02:23:32;;;;;;;31.30;24.40;;;17.70;99.90;;;;;;5072746;28;20643;-72
2023/08/23 02:25:59;;;;;;;36.33;28.67;;;17.70;99.90;;;;;;5067735;28;20512;-72
2023/08/23 02:28:25;;;;;;;38.40;29.37;;;17.70;99.90;;;;;;5068434;28;20495;-74
2023/08/23 02:31:02;;;;;;;35.70;29.57;;;17.70;99.90;;;;;;5068426;28;21048;-73
2023/08/23 02:33:29;;;;;;;39.03;30.10;;;17.60;99.90;;;;;;5068631;28;20456;-73
2023/08/23 02:35:55;;;;;;;40.00;28.70;;;17.60;99.90;;;;;;5067694;28;20528;-72
2023/08/23 02:38:22;;;;;;;39.50;26.33;;;17.60;99.90;;;;;;5073176;28;20432;-73
2023/08/23 02:40:49;;;;;;;39.93;31.00;;;17.60;99.90;;;;;;5066638;28;20833;-72
2023/08/23 02:43:16;;;;;;;44.43;32.67;;;17.60;99.90;;;;;;5071442;28;20831;-74
2023/08/23 02:45:43;;;;;;;37.90;30.57;;;17.60;99.90;;;;;;5064774;28;20473;-73
2023/08/23 02:48:15;;;;;;;41.40;28.10;;;17.50;99.90;;;;;;5071898;28;20524;-73
2023/08/23 02:50:43;;;;;;;47.27;31.03;;;17.50;99.90;;;;;;5067829;28;20469;-74
2023/08/23 02:53:12;;;;;;;42.50;32.47;;;17.50;99.90;;;;;;5072227;28;20543;-72
2023/08/23 02:55:39;;;;;;;41.70;34.37;;;17.50;99.90;;;;;;5072506;28;20448;-72
2023/08/23 02:58:06;;;;;;;35.70;28.27;;;17.40;99.90;;;;;;5072753;28;20441;-73
2023/08/23 03:00:34;;;;;;;46.77;31.40;;;17.40;99.90;;;;;;5070640;28;20527;-74
2023/08/23 03:03:01;;;;;;;52.83;33.87;;;17.50;99.90;;;;;;5072059;28;20476;-72
2023/08/23 03:05:30;;;;;;;61.40;42.70;;;17.40;99.90;;;;;;5072847;28;20535;-72
2023/08/23 03:07:56;;;;;;;53.87;38.53;;;17.40;99.90;;;;;;5072626;28;20461;-74
2023/08/23 03:10:23;;;;;;;51.87;36.17;;;17.40;99.90;;;;;;5071978;28;20491;-73
2023/08/23 03:12:50;;;;;;;51.83;35.38;;;17.40;99.90;;;;;;5071703;28;20951;-73
2023/08/23 03:15:17;;;;;;;48.20;34.97;;;17.40;99.90;;;;;;5072941;28;20249;-74
2023/08/23 03:17:44;;;;;;;50.87;35.23;;;17.40;99.90;;;;;;5071156;28;20513;-73
2023/08/23 03:20:12;;;;;;;49.40;36.33;;;17.30;99.90;;;;;;5071161;28;20931;-72
2023/08/23 03:22:41;;;;;;;44.60;35.92;;;17.30;99.90;;;;;;5071343;28;20587;-72
2023/08/23 03:25:08;;;;;;;47.27;35.50;;;17.30;99.90;;;;;;5070460;28;20305;-73
2023/08/23 03:27:35;;;;;;;46.87;35.50;;;17.20;99.90;;;;;;5071538;28;20550;-73
2023/08/23 03:30:02;;;;;;;46.40;36.20;;;17.20;99.90;;;;;;5070473;28;20515;-71
2023/08/23 03:32:29;;;;;;;49.03;36.70;;;17.20;99.90;;;;;;5071675;28;20450;-74
2023/08/23 03:34:56;;;;;;;52.10;36.53;;;17.20;99.90;;;;;;5070539;28;21037;-73
2023/08/23 03:37:24;;;;;;;50.43;36.40;;;17.20;99.90;;;;;;5071604;28;20534;-74
2023/08/23 03:39:52;;;;;;;44.07;32.13;;;17.20;99.90;;;;;;5067202;28;20542;-74
2023/08/23 03:42:20;;;;;;;40.40;30.10;;;17.30;99.90;;;;;;5072240;28;20578;-75
2023/08/23 03:44:47;;;;;;;49.87;37.40;;;17.30;99.90;;;;;;5071654;28;20559;-74
2023/08/23 03:47:14;;;;;;;50.87;33.70;;;17.40;99.90;;;;;;5070703;28;20454;-74
2023/08/23 03:49:41;;;;;;;49.50;34.80;;;17.40;99.90;;;;;;5077736;28;20530;-75
2023/08/23 03:52:08;;;;;;;46.83;35.73;;;17.40;99.90;;;;;;5076580;28;20463;-72
2023/08/23 03:54:47;;;;;;;45.00;32.13;;;17.50;99.90;;;;;;5069965;28;20453;-72
2023/08/23 03:57:15;;;;;;;37.30;29.80;;;17.50;99.90;;;;;;5071280;28;20472;-73
2023/08/23 03:59:42;;;;;;;38.10;28.40;;;17.50;99.90;;;;;;5072011;28;20988;-73
2023/08/23 04:02:09;;;;;;;37.07;27.77;;;17.60;99.90;;;;;;5066212;28;20584;-72
2023/08/23 04:04:36;;;;;;;49.90;33.67;;;17.60;99.90;;;;;;5062978;28;20496;-75
2023/08/23 04:07:03;;;;;;;43.40;29.87;;;17.60;99.90;;;;;;5069077;28;20966;-74
2023/08/23 04:09:29;;;;;;;43.43;31.37;;;17.70;99.90;;;;;;5067392;28;20450;-75
2023/08/23 04:11:56;;;;;;;35.97;28.37;;;17.70;99.90;;;;;;5059781;28;20450;-73
2023/08/23 04:14:25;;;;;;;41.03;30.57;;;17.80;99.90;;;;;;5074027;28;20556;-74
2023/08/23 04:16:52;;;;;;;35.93;28.57;;;17.90;99.90;;;;;;5068063;28;20442;-74
2023/08/23 04:19:18;;;;;;;37.97;30.20;;;17.90;99.90;;;;;;5068086;28;20464;-73
2023/08/23 04:21:47;;;;;;;32.97;26.83;;;17.90;99.90;;;;;;5068433;28;20477;-73
2023/08/23 04:24:14;;;;;;;35.20;29.57;;;18.00;99.90;;;;;;5068615;28;20564;-71
2023/08/23 04:26:41;;;;;;;41.27;33.20;;;18.10;99.90;;;;;;5074799;28;20896;-73
2023/08/23 04:29:07;;;;;;;45.97;32.07;;;18.10;99.90;;;;;;5070339;28;20517;-72
2023/08/23 04:31:38;;;;;;;50.93;34.53;;;18.20;99.90;;;;;;5067246;28;20540;-74
2023/08/23 04:34:05;;;;;;;33.63;26.93;;;18.20;99.90;;;;;;5069761;28;20537;-74
2023/08/23 04:36:32;;;;;;;42.83;32.90;;;18.30;99.90;;;;;;5069992;28;20494;-71
2023/08/23 04:38:59;;;;;;;44.80;31.83;;;18.30;99.90;;;;;;5075967;28;20445;-71
2023/08/23 04:41:26;;;;;;;43.27;32.27;;;18.30;99.90;;;;;;5077366;28;21089;-69
2023/08/23 04:43:53;;;;;;;47.97;35.87;;;18.30;99.90;;;;;;5087353;28;20465;-70
2023/08/23 04:46:20;;;;;;;41.80;33.80;;;18.20;99.90;;;;;;5075500;28;20525;-71
2023/08/23 04:48:48;;;;;;;47.53;34.17;;;18.20;99.90;;;;;;5077840;28;20472;-70
2023/08/23 04:51:15;;;;;;;40.03;30.43;;;18.30;99.90;;;;;;5075418;28;20542;-74
2023/08/23 04:53:42;;;;;;;43.63;33.90;;;18.30;99.90;;;;;;5074356;28;20456;-72
2023/08/23 04:56:09;;;;;;;36.63;29.63;;;18.30;99.90;;;;;;5069489;28;20442;-71
2023/08/23 04:58:36;;;;;;;35.53;26.60;;;18.60;99.90;;;;;;5068777;28;20958;-74
2023/08/23 05:01:04;;;;;;;35.13;23.00;;;18.70;99.90;;;;;;5069639;28;20994;-74
2023/08/23 05:03:31;;;;;;;32.80;24.30;;;18.80;99.90;;;;;;5069460;28;20477;-72
2023/08/23 05:05:59;;;;;;;35.97;26.73;;;19.00;99.90;;;;;;5064738;28;21075;-73
2023/08/23 05:08:27;;;;;;;31.87;25.60;;;19.20;99.90;;;;;;5071009;28;20465;-72
2023/08/23 05:10:55;;;;;;;33.43;23.80;;;19.20;99.90;;;;;;5070735;28;20514;-72
2023/08/23 05:13:22;;;;;;;31.53;22.20;;;19.40;99.90;;;;;;5065519;28;20491;-73
2023/08/23 05:15:53;;;;;;;32.83;21.50;;;19.50;99.90;;;;;;5074693;28;20944;-73
2023/08/23 05:18:21;;;;;;;32.37;27.10;;;19.80;99.90;;;;;;5072794;28;20464;-73
2023/08/23 05:20:54;;;;;;;30.83;25.77;;;19.90;99.90;;;;;;5065536;28;20978;-75
2023/08/23 05:23:23;;;;;;;33.57;26.93;;;20.00;99.90;;;;;;5066621;28;20487;-74
2023/08/23 05:25:51;;;;;;;39.77;30.47;;;20.10;99.90;;;;;;5072045;28;20445;-74
2023/08/23 05:28:18;;;;;;;46.60;30.20;;;20.20;99.90;;;;;;5070021;28;20527;-74
2023/08/23 05:30:45;;;;;;;42.17;31.93;;;20.40;99.90;;;;;;5062528;28;20446;-72
2023/08/23 05:33:12;;;;;;;38.90;29.63;;;20.60;99.90;;;;;;5070312;28;20455;-71
2023/08/23 05:35:40;;;;;;;36.23;28.40;;;20.80;99.90;;;;;;5069382;28;20442;-73
2023/08/23 05:38:07;;;;;;;29.27;24.17;;;21.00;99.90;;;;;;5072673;28;20436;-73
2023/08/23 05:40:36;;;;;;;36.23;26.60;;;21.30;99.90;;;;;;5062616;28;20441;-75
2023/08/23 05:43:03;;;;;;;25.97;23.13;;;21.40;99.90;;;;;;5070722;28;20515;-74
2023/08/23 05:45:30;;;;;;;26.70;22.60;;;21.30;99.90;;;;;;5066041;28;20476;-74
2023/08/23 05:47:58;;;;;;;25.70;19.40;;;21.20;99.90;;;;;;5078275;28;20515;-75
2023/08/23 05:50:25;;;;;;;41.80;26.70;;;21.70;99.90;;;;;;5064978;28;20450;-73
2023/08/23 05:52:52;;;;;;;26.53;21.60;;;22.00;99.90;;;;;;5068853;28;20535;-72
2023/08/23 05:55:19;;;;;;;29.10;21.90;;;22.50;99.90;;;;;;5067171;28;20528;-73
2023/08/23 05:57:47;;;;;;;31.10;24.33;;;22.80;99.90;;;;;;5062759;28;20525;-73
2023/08/23 06:00:14;;;;;;;26.37;19.30;;;23.60;99.90;;;;;;5068800;28;20450;-72
2023/08/23 06:02:43;;;;;;;33.27;23.97;;;24.50;99.90;;;;;;5067387;28;20489;-73
2023/08/23 06:05:11;;;;;;;44.73;27.97;;;25.00;99.90;;;;;;5065198;28;20486;-72
2023/08/23 06:07:38;;;;;;;44.03;30.37;;;24.70;99.90;;;;;;5068662;28;20473;-71
2023/08/23 06:10:06;;;;;;;34.30;24.30;;;23.90;99.90;;;;;;5068643;28;20455;-72
2023/08/23 06:12:33;;;;;;;39.17;29.87;;;23.10;99.90;;;;;;5070329;28;20463;-73
2023/08/23 06:15:00;;;;;;;37.20;26.27;;;22.70;99.90;;;;;;5062154;28;20499;-74
2023/08/23 06:17:28;;;;;;;32.37;24.37;;;22.00;99.90;;;;;;5071357;28;20448;-74
2023/08/23 06:19:55;;;;;;;51.30;30.00;;;21.60;99.90;;;;;;5068791;28;20497;-73
2023/08/23 06:22:22;;;;;;;41.93;31.27;;;21.40;99.90;;;;;;5065965;28;20885;-72
2023/08/23 06:24:49;;;;;;;45.87;31.10;;;21.10;99.90;;;;;;5069381;28;20942;-73
2023/08/23 06:27:16;;;;;;;44.57;25.87;;;20.90;99.90;;;;;;5071292;28;20987;-72
2023/08/23 06:29:42;;;;;;;38.20;26.70;;;20.80;99.90;;;;;;5069245;28;20527;-73
2023/08/23 06:32:11;;;;;;;33.37;22.73;;;20.80;99.90;;;;;;5062719;28;20472;-75
2023/08/23 06:34:39;;;;;;;36.80;28.93;;;21.20;99.90;;;;;;5067238;28;20530;-74
2023/08/23 06:37:07;;;;;;;32.93;23.07;;;22.20;99.90;;;;;;5069580;28;20448;-76
2023/08/23 06:39:34;;;;;;;29.27;23.17;;;23.10;99.90;;;;;;5067655;28;20970;-72
2023/08/23 06:42:01;;;;;;;24.00;19.87;;;24.00;99.90;;;;;;5063846;28;20469;-74
2023/08/23 06:44:28;;;;;;;25.80;20.27;;;24.60;99.90;;;;;;5077398;28;20551;-75
2023/08/23 06:46:55;;;;;;;26.33;20.57;;;24.70;99.90;;;;;;5069312;28;20525;-74
2023/08/23 06:49:24;;;;;;;24.10;19.47;;;25.10;99.90;;;;;;5072649;28;20465;-74
2023/08/23 06:51:51;;;;;;;25.80;21.80;;;24.90;99.90;;;;;;5071132;28;20441;-76
2023/08/23 06:54:17;;;;;;;29.27;21.80;;;25.00;99.90;;;;;;5072343;28;20459;-72
2023/08/23 06:56:46;;;;;;;25.47;21.20;;;24.80;99.90;;;;;;5072824;28;20526;-75
2023/08/23 06:59:13;;;;;;;21.80;18.60;;;25.10;99.90;;;;;;5071999;28;20507;-72
2023/08/23 07:01:40;;;;;;;21.53;14.73;;;26.20;99.90;;;;;;5069457;28;20529;-74
2023/08/23 07:04:07;;;;;;;21.50;17.40;;;27.70;99.90;;;;;;5071245;28;20465;-72
2023/08/23 07:06:36;;;;;;;18.60;14.87;;;28.40;99.90;;;;;;5077785;28;20531;-72
2023/08/23 07:09:03;;;;;;;20.97;18.10;;;29.40;99.30;;;;;;5073008;28;20437;-75
2023/08/23 07:11:30;;;;;;;16.73;13.90;;;30.30;95.90;;;;;;5067573;28;20437;-76
2023/08/23 07:13:57;;;;;;;17.03;14.63;;;30.50;94.10;;;;;;5073523;28;20465;-75
2023/08/23 07:16:24;;;;;;;20.77;17.23;;;30.20;94.00;;;;;;5072950;28;20904;-70
2023/08/23 07:18:51;;;;;;;20.40;16.50;;;30.20;93.60;;;;;;5074756;28;20468;-71
2023/08/23 07:21:18;;;;;;;20.20;16.47;;;30.20;93.40;;;;;;5066624;28;20447;-71
2023/08/23 07:23:46;;;;;;;19.23;15.20;;;30.30;93.10;;;;;;5077927;28;20991;-72
2023/08/23 07:26:13;;;;;;;27.00;19.13;;;30.70;92.80;;;;;;5073215;28;20612;-73
2023/08/23 07:28:40;;;;;;;23.33;17.30;;;30.30;93.00;;;;;;5072549;28;20943;-72
2023/08/23 07:31:06;;;;;;;20.57;15.93;;;30.20;93.20;;;;;;5065389;28;20442;-74
2023/08/23 07:33:33;;;;;;;17.37;14.43;;;30.40;93.10;;;;;;5065380;28;20957;-72
2023/08/23 07:36:02;;;;;;;20.90;17.60;;;30.50;93.20;;;;;;5044508;28;20469;-74
2023/08/23 07:38:31;;;;;;;20.47;12.63;;;30.00;92.30;;;;;;5039589;28;20523;-73
2023/08/23 07:41:01;;;;;;;18.23;16.23;;;30.00;92.80;;;;;;5044526;28;20450;-76
2023/08/23 07:43:28;;;;;;;21.97;16.03;;;29.50;93.10;;;;;;5034628;28;21264;-72
2023/08/23 07:45:56;;;;;;;16.77;15.07;;;29.00;94.20;;;;;;5035671;28;20530;-74
2023/08/23 07:48:24;;;;;;;22.50;17.67;;;29.30;94.50;;;;;;5044234;28;20549;-75
2023/08/23 07:50:51;;;;;;;14.47;12.97;;;29.30;94.10;;;;;;5037293;28;20483;-74
2023/08/23 07:53:18;;;;;;;19.73;17.63;;;29.00;94.40;;;;;;5052459;28;20890;-72
2023/08/23 07:55:45;;;;;;;16.40;13.83;;;28.00;94.90;;;;;;5038889;28;20518;-73
2023/08/23 07:58:15;;;;;;;19.10;17.23;;;27.60;96.60;;;;;;5037062;28;20538;-77
2023/08/23 08:00:42;;;;;;;17.60;14.40;;;28.00;96.00;;;;;;5026929;28;20447;-73
2023/08/23 08:03:10;;;;;;;18.67;15.63;;;28.80;95.10;;;;;;5038216;28;20526;-73
2023/08/23 08:05:37;;;;;;;21.30;15.20;;;29.80;92.90;;;;;;5042765;28;20484;-71
2023/08/23 08:08:06;;;;;;;18.73;16.70;;;30.70;92.30;;;;;;5024966;28;21030;-73
2023/08/23 08:10:33;;;;;;;14.50;13.03;;;31.60;90.70;;;;;;5034975;28;20466;-74
2023/08/23 08:13:00;;;;;;;15.77;11.93;;;31.90;90.00;;;;;;5032584;28;20855;-75
2023/08/23 08:15:29;;;;;;;12.00;10.57;;;32.90;87.90;;;;;;5037122;28;20567;-75
2023/08/23 08:17:56;;;;;;;12.60;10.93;;;32.80;86.00;;;;;;5034061;28;20461;-75
2023/08/23 08:20:24;;;;;;;11.47;10.23;;;32.60;85.30;;;;;;5035763;28;20445;-74
2023/08/23 08:22:51;;;;;;;11.80;9.20;;;33.40;84.20;;;;;;5036217;28;20481;-74
2023/08/23 08:25:19;;;;;;;10.50;9.40;;;34.10;82.70;;;;;;5033921;28;20810;-73
2023/08/23 08:27:48;;;;;;;7.77;6.97;;;33.90;80.40;;;;;;5046632;28;20446;-74
2023/08/23 08:30:15;;;;;;;6.67;5.93;;;32.90;81.60;;;;;;5039025;28;20921;-73
2023/08/23 08:32:44;;;;;;;6.10;5.27;;;33.60;82.60;;;;;;5019221;28;20863;-75
2023/08/23 08:35:11;;;;;;;9.47;6.90;;;33.60;81.50;;;;;;5044149;28;20474;-76
2023/08/23 08:37:44;;;;;;;9.60;7.53;;;33.70;81.10;;;;;;5041700;28;20471;-74
2023/08/23 08:40:12;;;;;;;8.47;5.47;;;33.70;81.00;;;;;;5033058;28;20470;-72
2023/08/23 08:42:39;;;;;;;13.23;7.30;;;34.60;80.00;;;;;;5044718;28;20552;-72
2023/08/23 08:45:07;;;;;;;9.83;7.13;;;34.00;79.30;;;;;;5025595;28;20499;-73
2023/08/23 08:47:34;;;;;;;10.57;7.97;;;33.60;79.90;;;;;;5047201;28;20443;-74
2023/08/23 08:50:03;;;;;;;8.97;5.80;;;33.90;78.90;;;;;;5040924;28;20446;-72
2023/08/23 08:52:30;;;;;;;6.87;6.17;;;33.70;79.40;;;;;;5028775;28;20458;-74
2023/08/23 08:54:59;;;;;;;8.03;5.67;;;33.30;79.70;;;;;;5034599;28;20474;-75
2023/08/23 08:57:28;;;;;;;7.63;6.93;;;33.40;80.50;;;;;;5021634;28;20527;-74
2023/08/23 08:59:56;;;;;;;10.53;9.43;;;33.40;79.20;;;;;;5038382;28;20517;-74
2023/08/23 09:02:25;;;;;;;7.43;6.27;;;32.90;79.60;;;;;;5025566;28;20444;-77
2023/08/23 09:04:53;;;;;;;15.97;7.63;;;33.50;80.20;;;;;;5032334;28;20466;-73
2023/08/23 09:07:21;;;;;;;10.00;7.00;;;33.80;79.20;;;;;;5030903;28;20457;-74
2023/08/23 09:09:50;;;;;;;10.40;9.40;;;33.90;78.40;;;;;;5034568;28;20474;-75
2023/08/23 09:12:17;;;;;;;11.50;8.10;;;33.70;77.70;;;;;;5038726;28;20849;-73
2023/08/23 09:14:51;;;;;;;9.40;7.30;;;34.50;77.20;;;;;;5040296;28;20549;-73
2023/08/23 09:17:22;;;;;;;12.13;7.63;;;34.70;76.50;;;;;;5038129;28;20539;-76
2023/08/23 09:19:49;;;;;;;7.37;4.87;;;34.70;76.70;;;;;;5028593;28;20443;-76
2023/08/23 09:22:22;;;;;;;7.13;5.90;;;34.90;73.30;;;;;;5038574;28;20990;-71
2023/08/23 09:24:49;;;;;;;8.70;5.67;;;34.00;73.40;;;;;;5036305;28;20819;-74
2023/08/23 09:27:16;;;;;;;7.47;6.03;;;33.60;75.20;;;;;;5029506;28;20453;-74
2023/08/23 09:29:44;;;;;;;17.67;8.27;;;34.10;75.60;;;;;;5038059;28;20464;-73
2023/08/23 09:32:11;;;;;;;13.23;7.23;;;33.70;74.90;;;;;;5034026;28;20558;-74
2023/08/23 09:34:38;;;;;;;13.10;7.03;;;33.40;75.20;;;;;;5038289;28;20473;-72
2023/08/23 09:37:06;;;;;;;7.60;6.80;;;32.80;76.50;;;;;;5034468;28;20526;-73
2023/08/23 09:39:35;;;;;;;9.27;7.80;;;33.00;78.30;;;;;;5036762;28;20442;-77
2023/08/23 09:42:04;;;;;;;8.13;6.83;;;33.20;77.90;;;;;;5029733;28;20445;-74
2023/08/23 09:44:31;;;;;;;9.47;7.27;;;33.40;78.10;;;;;;5038512;28;20485;-75
2023/08/23 09:47:00;;;;;;;7.73;6.00;;;33.40;77.30;;;;;;5028875;28;20522;-76
2023/08/23 09:49:33;;;;;;;8.37;7.30;;;33.30;76.90;;;;;;5046231;28;20442;-76
2023/08/23 09:52:01;;;;;;;7.37;6.20;;;33.20;76.70;;;;;;5044733;28;20491;-75
2023/08/23 09:54:36;;;;;;;10.93;7.77;;;32.90;77.50;;;;;;5043992;28;20952;-74
2023/08/23 09:57:05;;;;;;;10.40;7.40;;;33.10;77.30;;;;;;5034669;28;20442;-73
2023/08/23 09:59:33;;;;;;;7.10;6.03;;;33.20;76.70;;;;;;5033527;28;20529;-76
2023/08/23 10:02:02;;;;;;;7.93;7.13;;;32.90;77.40;;;;;;5047535;28;20569;-71
2023/08/23 10:04:30;;;;;;;9.07;6.50;;;32.60;77.90;;;;;;5050616;28;20520;-69
2023/08/23 10:06:58;;;;;;;12.10;7.30;;;33.10;78.20;;;;;;5058334;28;20474;-73
2023/08/23 10:09:27;;;;;;;5.20;4.70;;;33.20;76.60;;;;;;5045642;28;20447;-72
2023/08/23 10:11:54;;;;;;;5.57;4.27;;;33.90;74.50;;;;;;5033506;28;20470;-72
2023/08/23 10:14:23;;;;;;;4.30;3.57;;;33.60;73.30;;;;;;5035392;28;20491;-75
2023/08/23 10:16:51;;;;;;;5.43;4.40;;;33.50;74.40;;;;;;5032533;28;20466;-72
2023/08/23 10:19:18;;;;;;;5.80;5.13;;;33.30;74.10;;;;;;5039100;28;20530;-74
2023/08/23 10:21:46;;;;;;;13.00;4.53;;;33.40;73.60;;;;;;5030186;28;20550;-74
2023/08/23 10:24:13;;;;;;;6.67;4.00;;;32.70;74.10;;;;;;5030618;28;20536;-75
2023/08/23 10:26:51;;;;;;;5.50;4.13;;;32.80;74.90;;;;;;5031693;28;20440;-72
2023/08/23 10:29:27;;;;;;;5.43;4.57;;;33.20;75.00;;;;;;5034764;28;20446;-73
2023/08/23 10:31:55;;;;;;;5.40;4.50;;;33.10;74.90;;;;;;5030804;28;20859;-72
2023/08/23 10:34:26;;;;;;;5.53;4.03;;;33.10;75.10;;;;;;5041695;28;20454;-75
2023/08/23 10:36:53;;;;;;;6.00;4.23;;;31.80;74.50;;;;;;5021743;28;20534;-71
2023/08/23 10:39:23;;;;;;;8.10;3.90;;;31.20;77.50;;;;;;5023777;28;20468;-74
2023/08/23 10:41:52;;;;;;;7.47;4.30;;;31.00;78.70;;;;;;5033277;28;20495;-73
2023/08/23 10:44:20;;;;;;;8.27;5.03;;;30.60;78.00;;;;;;5021666;28;20486;-73
2023/08/23 10:46:51;;;;;;;4.93;4.53;;;30.10;79.10;;;;;;5031389;28;20447;-71
2023/08/23 10:49:20;;;;;;;10.40;4.20;;;29.40;81.50;;;;;;5036026;28;20541;-75
2023/08/23 10:51:47;;;;;;;4.83;4.43;;;29.40;83.20;;;;;;5032019;28;20501;-72
2023/08/23 10:54:14;;;;;;;4.80;3.70;;;29.30;83.20;;;;;;5034654;28;20565;-75
2023/08/23 10:56:41;;;;;;;5.30;3.43;;;29.00;82.90;;;;;;5026322;28;20811;-72
2023/08/23 10:59:09;;;;;;;3.70;3.37;;;29.10;83.60;;;;;;5036627;28;20535;-74
2023/08/23 11:01:37;;;;;;;4.20;2.60;;;29.50;81.00;;;;;;5044447;28;20872;-73
2023/08/23 11:04:07;;;;;;;3.57;3.13;;;29.60;79.50;;;;;;5022575;28;20925;-73
2023/08/23 11:06:36;;;;;;;5.67;3.87;;;29.30;79.50;;;;;;5039230;28;20473;-72
2023/08/23 11:09:03;;;;;;;5.57;3.60;;;28.90;81.70;;;;;;5031995;28;20474;-72
2023/08/23 11:11:30;;;;;;;5.07;3.67;;;28.10;83.10;;;;;;5030943;28;20445;-75
2023/08/23 11:13:57;;;;;;;3.40;3.10;;;28.30;84.30;;;;;;5036210;28;20543;-73
2023/08/23 11:16:24;;;;;;;3.80;3.17;;;28.70;83.00;;;;;;5021585;28;20538;-73
2023/08/23 11:18:51;;;;;;;4.17;2.80;;;28.80;82.30;;;;;;5036843;28;20475;-74
2023/08/23 11:21:20;;;;;;;3.43;2.63;;;29.20;83.10;;;;;;5029175;28;20877;-75
2023/08/23 11:23:47;;;;;;;5.03;2.90;;;29.50;81.40;;;;;;5030587;28;20972;-75
2023/08/23 11:26:15;;;;;;;3.57;2.50;;;29.80;81.10;;;;;;5044172;28;20492;-74
2023/08/23 11:28:41;;;;;;;4.00;2.50;;;29.50;78.70;;;;;;5023123;28;20479;-73
2023/08/23 11:31:09;;;;;;;2.80;2.03;;;29.60;80.70;;;;;;5042097;28;20526;-72
2023/08/23 11:33:38;;;;;;;3.70;2.30;;;29.80;80.40;;;;;;5028094;28;20566;-74
2023/08/23 11:36:05;;;;;;;3.40;2.70;;;29.80;79.50;;;;;;5033710;28;20585;-73
2023/08/23 11:38:34;;;;;;;3.90;2.67;;;29.50;79.50;;;;;;5029521;28;20475;-71
2023/08/23 11:41:03;;;;;;;5.03;2.37;;;29.50;80.00;;;;;;5038668;28;20867;-71
2023/08/23 11:43:30;;;;;;;6.40;2.90;;;29.40;80.80;;;;;;5029202;28;20582;-74
2023/08/23 11:45:58;;;;;;;3.70;2.63;;;29.30;80.40;;;;;;5032713;28;20534;-74
2023/08/23 11:48:25;;;;;;;3.10;2.60;;;29.00;81.40;;;;;;5049516;28;20470;-73
2023/08/23 11:50:53;;;;;;;3.93;2.87;;;28.80;81.60;;;;;;5042616;28;20485;-72
2023/08/23 11:53:19;;;;;;;3.00;2.70;;;28.80;82.50;;;;;;5053081;28;20549;-73
2023/08/23 11:55:51;;;;;;;3.00;2.43;;;28.80;81.50;;;;;;5038084;28;20446;-73
2023/08/23 11:58:18;;;;;;;3.23;2.50;;;29.10;81.80;;;;;;5041912;28;20442;-74
2023/08/23 12:00:47;;;;;;;6.93;4.10;;;29.10;80.60;;;;;;5047356;28;20449;-76
2023/08/23 12:03:14;;;;;;;4.13;2.53;;;29.20;80.60;;;;;;5040940;28;22313;-71
2023/08/23 12:05:41;;;;;;;2.23;1.97;;;29.40;80.60;;;;;;5048083;28;20482;-72
2023/08/23 12:08:08;;;;;;;3.00;2.00;;;29.60;80.50;;;;;;5041216;28;20510;-72
2023/08/23 12:10:35;;;;;;;5.60;3.10;;;29.80;79.00;;;;;;5037454;28;20862;-73
2023/08/23 12:13:03;;;;;;;5.90;2.17;;;29.80;78.90;;;;;;5029115;28;20522;-72
2023/08/23 12:15:31;;;;;;;4.73;2.97;;;29.20;78.60;;;;;;5043450;28;20862;-74
2023/08/23 12:17:58;;;;;;;4.20;2.20;;;28.90;80.20;;;;;;5028569;28;20891;-75
2023/08/23 12:20:25;;;;;;;2.80;1.93;;;28.60;80.00;;;;;;5047915;28;21014;-74
2023/08/23 12:22:52;;;;;;;2.93;2.30;;;28.80;80.70;;;;;;5038059;28;20851;-73
2023/08/23 12:25:20;;;;;;;6.20;2.87;;;28.80;81.70;;;;;;5047425;28;20482;-74
2023/08/23 12:27:47;;;;;;;3.73;2.73;;;28.80;81.60;;;;;;5041397;28;20443;-73
2023/08/23 12:30:17;;;;;;;3.60;2.40;;;28.60;81.10;;;;;;5031393;28;20460;-73
2023/08/23 12:32:44;;;;;;;6.93;3.17;;;28.20;81.40;;;;;;5040873;28;20459;-72
2023/08/23 12:35:11;;;;;;;4.33;2.90;;;28.20;81.50;;;;;;5027831;28;20547;-71
2023/08/23 12:37:38;;;;;;;3.60;2.90;;;28.20;81.70;;;;;;5023412;28;20444;-75